Terminal Aerodrome Forecast
Issued by NWS Wilmington, OH

Current Version | Previous Version | Text Only | Print | Product List | Glossary Off
Versions: 1 2 3 4 5 6 7 8 9 10 11 12 13 14 15 16 17 18 19 20 21 22 23 24 25

000
FTUS41 KILN 240900 AAA
TAFCVG
TAF AMD
KCVG 240900Z 2409/2512 15005KT P6SM OVC070
     FM241200 12008KT 4SM BR VCSH OVC015
     FM241600 16010KT 5SM BR BKN007 OVC012
     FM241900 21014G22KT P6SM -SHRA OVC015
     FM242200 23022G36KT P6SM OVC018
     FM250200 24016G26KT P6SM OVC018
     FM250800 25012G20KT P6SM OVC022=

USA.gov is the U.S. government's official web portal to all federal, state and local government web resources and services.